Time;durP1;ratioP1;P1;durP2;ratioP2;P2;SDS_P1;SDS_P2;PMS_P1;PMS_P2;Temp;Humidity;BMP_temperature;BMP_pressure;BME280_temperature;BME280_humidity;BME280_pressure;Samples;Min_cycle;Max_cycle;Signal;HPM_P1;HPM_P2
2022/11/06 00:00:55;;;;;;;4.07;2.00;;;;;;;;;;5046681;27;99527;-78
2022/11/06 00:03:22;;;;;;;3.80;2.15;;;;;;;;;;5034552;27;99197;-78
2022/11/06 00:08:35;;;;;;;3.83;2.20;;;;;;;;;;5052211;27;99852;-78
2022/11/06 00:11:07;;;;;;;2.95;1.70;;;;;;;;;;5035297;27;99010;-78
2022/11/06 00:13:33;;;;;;;3.95;2.28;;;;;;;;;;5053013;27;99101;-78
2022/11/06 00:16:04;;;;;;;2.58;2.03;;;;;;;;;;5043970;27;99493;-78
2022/11/06 00:18:30;;;;;;;4.45;2.00;;;;;;;;;;5035783;28;98551;-78
2022/11/06 00:20:56;;;;;;;3.17;1.98;;;;;;;;;;5032637;28;98780;-78
2022/11/06 00:23:23;;;;;;;6.60;2.20;;;;;;;;;;5014665;28;98523;-78
2022/11/06 00:25:54;;;;;;;4.07;2.05;;;;;;;;;;5014560;28;99144;-78
2022/11/06 00:28:20;;;;;;;1.83;1.55;;;;;;;;;;5031672;28;100327;-78
2022/11/06 00:30:47;;;;;;;6.03;2.25;;;;;;;;;;5032403;28;98505;-78
2022/11/06 00:33:13;;;;;;;3.90;1.80;;;;;;;;;;5032255;28;99109;-78
2022/11/06 00:35:39;;;;;;;3.75;2.17;;;;;;;;;;5032517;28;99410;-78
2022/11/06 00:38:06;;;;;;;1.73;1.60;;;;;;;;;;5032201;28;98492;-78
2022/11/06 00:40:32;;;;;;;3.72;2.03;;;;;;;;;;5035209;28;99117;-78
2022/11/06 00:42:58;;;;;;;2.72;1.95;;;;;;;;;;5032986;28;98863;-78
2022/11/06 00:45:25;;;;;;;4.43;2.25;;;;;;;;;;5032719;28;100498;-78
2022/11/06 00:47:51;;;;;;;3.10;1.77;;;;;;;;;;5031575;28;99500;-78
2022/11/06 00:50:17;;;;;;;3.47;2.05;;;;;;;;;;5031979;28;98859;-78
2022/11/06 00:52:44;;;;;;;2.90;1.90;;;;;;;;;;5031741;28;99193;-78
2022/11/06 00:55:10;;;;;;;2.83;1.73;;;;;;;;;;5032148;28;102470;-79
2022/11/06 00:57:36;;;;;;;2.42;1.83;;;;;;;;;;5014069;28;98551;-78
2022/11/06 01:00:03;;;;;;;2.25;1.75;;;;;;;;;;5021200;27;100611;-78
2022/11/06 01:02:29;;;;;;;3.20;1.90;;;;;;;;;;5037838;27;99964;-78
2022/11/06 01:04:56;;;;;;;2.35;1.55;;;;;;;;;;5052741;27;101110;-78
2022/11/06 01:07:22;;;;;;;4.97;1.90;;;;;;;;;;5052066;27;99439;-78
2022/11/06 01:09:49;;;;;;;5.15;2.53;;;;;;;;;;5034151;27;97836;-78
2022/11/06 01:12:15;;;;;;;2.50;2.10;;;;;;;;;;5052194;27;98523;-78
2022/11/06 01:14:41;;;;;;;2.70;2.00;;;;;;;;;;5050987;27;100531;-78
2022/11/06 01:17:08;;;;;;;3.70;1.92;;;;;;;;;;5015464;28;99228;-78
2022/11/06 01:19:34;;;;;;;3.55;1.80;;;;;;;;;;5014067;28;99941;-78
2022/11/06 01:22:01;;;;;;;2.00;1.70;;;;;;;;;;5031013;28;99768;-78
2022/11/06 01:24:27;;;;;;;2.28;1.65;;;;;;;;;;5035056;28;98546;-78
2022/11/06 01:26:54;;;;;;;2.72;1.90;;;;;;;;;;5013591;28;102519;-78
2022/11/06 01:29:40;;;;;;;2.08;1.65;;;;;;;;;;5031344;28;98616;-78
2022/11/06 01:32:07;;;;;;;2.13;1.40;;;;;;;;;;5032022;28;99426;-78
2022/11/06 01:34:33;;;;;;;3.85;1.95;;;;;;;;;;5013752;28;98811;-78
2022/11/06 01:36:59;;;;;;;3.83;1.60;;;;;;;;;;5031380;28;98541;-78
2022/11/06 01:39:26;;;;;;;2.72;1.80;;;;;;;;;;5030655;28;99117;-78
2022/11/06 01:41:52;;;;;;;2.17;1.67;;;;;;;;;;5013278;28;99958;-78
2022/11/06 01:44:34;;;;;;;3.60;1.70;;;;;;;;;;5016596;28;98534;-78
2022/11/06 01:47:04;;;;;;;3.58;1.90;;;;;;;;;;5030741;28;99831;-78
2022/11/06 01:49:35;;;;;;;3.13;1.90;;;;;;;;;;5013310;28;98516;-78
2022/11/06 01:52:05;;;;;;;2.08;1.38;;;;;;;;;;5031492;28;99481;-78
2022/11/06 01:54:32;;;;;;;4.22;2.08;;;;;;;;;;5030684;28;99462;-78
2022/11/06 01:56:59;;;;;;;4.20;2.15;;;;;;;;;;5031153;28;98532;-78
2022/11/06 01:59:26;;;;;;;3.13;1.65;;;;;;;;;;5015687;27;99187;-78
2022/11/06 02:01:52;;;;;;;3.88;1.88;;;;;;;;;;5050982;27;99462;-78
2022/11/06 02:04:24;;;;;;;2.63;1.63;;;;;;;;;;5051349;27;98477;-78
2022/11/06 02:06:50;;;;;;;2.70;1.77;;;;;;;;;;5053275;27;99309;-78
2022/11/06 02:09:17;;;;;;;2.58;1.40;;;;;;;;;;5051364;27;98491;-78
2022/11/06 02:11:46;;;;;;;2.95;1.67;;;;;;;;;;5051193;27;99118;-78
2022/11/06 02:14:18;;;;;;;3.10;1.40;;;;;;;;;;5050724;27;99901;-78
2022/11/06 02:16:51;;;;;;;1.83;1.45;;;;;;;;;;5035716;27;98522;-78
2022/11/06 02:19:36;;;;;;;4.13;1.67;;;;;;;;;;5012965;28;99403;-78
2022/11/06 02:22:02;;;;;;;5.72;2.10;;;;;;;;;;5030324;28;100019;-78
2022/11/06 02:24:35;;;;;;;4.00;1.42;;;;;;;;;;5031034;27;97846;-78
2022/11/06 02:27:10;;;;;;;2.30;1.48;;;;;;;;;;5012803;28;98649;-78
2022/11/06 02:29:55;;;;;;;4.82;1.67;;;;;;;;;;5033167;28;99585;-78
2022/11/06 02:32:27;;;;;;;2.20;1.52;;;;;;;;;;5030035;28;99200;-78
2022/11/06 02:34:54;;;;;;;2.03;1.65;;;;;;;;;;5012915;28;99694;-78
2022/11/06 02:37:25;;;;;;;3.05;1.60;;;;;;;;;;5030266;28;98621;-78
2022/11/06 02:39:53;;;;;;;2.88;1.60;;;;;;;;;;5030547;28;100213;-78
2022/11/06 02:42:19;;;;;;;3.08;1.63;;;;;;;;;;5030582;28;100803;-78
2022/11/06 02:44:49;;;;;;;1.50;1.35;;;;;;;;;;5030496;28;98583;-78
2022/11/06 02:47:17;;;;;;;2.33;1.40;;;;;;;;;;5030876;28;99742;-78
2022/11/06 02:49:46;;;;;;;2.40;1.52;;;;;;;;;;5012503;28;98753;-78
2022/11/06 02:52:16;;;;;;;2.92;1.63;;;;;;;;;;5033897;28;98500;-77
2022/11/06 02:54:44;;;;;;;6.13;1.75;;;;;;;;;;5030003;28;99509;-77
2022/11/06 02:57:14;;;;;;;3.00;1.50;;;;;;;;;;5030289;28;99233;-78
2022/11/06 02:59:47;;;;;;;2.75;1.30;;;;;;;;;;5016085;27;100319;-78
2022/11/06 03:02:16;;;;;;;2.45;1.55;;;;;;;;;;5049969;27;99801;-78
2022/11/06 03:04:52;;;;;;;2.72;1.70;;;;;;;;;;5032851;27;98530;-78
2022/11/06 03:07:21;;;;;;;2.63;1.40;;;;;;;;;;5037828;27;99077;-78
2022/11/06 03:09:48;;;;;;;3.70;1.27;;;;;;;;;;5011531;28;100618;-78
2022/11/06 03:12:17;;;;;;;3.58;1.20;;;;;;;;;;5030225;28;98519;-78
2022/11/06 03:15:02;;;;;;;1.95;1.55;;;;;;;;;;5033489;28;99553;-78
2022/11/06 03:17:44;;;;;;;4.63;1.80;;;;;;;;;;5010436;28;98501;-78
2022/11/06 03:20:16;;;;;;;2.97;1.40;;;;;;;;;;4992455;28;99158;-78
2022/11/06 03:23:09;;;;;;;2.30;1.30;;;;;;;;;;5008935;28;100199;-78
2022/11/06 03:25:45;;;;;;;3.63;1.40;;;;;;;;;;5005140;28;98532;-78
2022/11/06 03:28:22;;;;;;;1.88;1.23;;;;;;;;;;5009878;28;99517;-78
2022/11/06 03:30:54;;;;;;;2.45;1.63;;;;;;;;;;5010275;28;99771;-78
2022/11/06 03:33:20;;;;;;;1.40;1.30;;;;;;;;;;5010292;28;98468;-78
2022/11/06 03:35:49;;;;;;;2.30;1.33;;;;;;;;;;5013363;28;99111;-78
2022/11/06 03:38:24;;;;;;;5.20;1.40;;;;;;;;;;5012214;28;98813;-78
2022/11/06 03:40:53;;;;;;;1.67;1.40;;;;;;;;;;5013511;28;99177;-78
2022/11/06 03:43:21;;;;;;;3.72;1.48;;;;;;;;;;4995101;28;99500;-78
2022/11/06 03:45:50;;;;;;;1.60;1.27;;;;;;;;;;5020463;28;98558;-78
2022/11/06 03:48:29;;;;;;;1.55;1.42;;;;;;;;;;5014595;28;99178;-78
2022/11/06 03:50:58;;;;;;;3.65;1.40;;;;;;;;;;5032938;28;101792;-78
2022/11/06 03:53:45;;;;;;;2.47;1.30;;;;;;;;;;5014989;28;98534;-78
2022/11/06 03:56:23;;;;;;;3.10;1.27;;;;;;;;;;5033182;28;99586;-78
2022/11/06 03:58:50;;;;;;;2.80;1.48;;;;;;;;;;5035803;28;99806;-78
2022/11/06 04:01:20;;;;;;;1.98;1.40;;;;;;;;;;5033795;28;99277;-78
2022/11/06 04:03:50;;;;;;;3.10;1.40;;;;;;;;;;5014934;28;99492;-78
2022/11/06 04:06:20;;;;;;;4.82;1.70;;;;;;;;;;5033160;28;97795;-78
2022/11/06 04:14:19;;;;;;;2.83;1.40;;;;;;;;;;5032982;28;99178;-78
2022/11/06 04:16:49;;;;;;;3.70;1.67;;;;;;;;;;5032424;28;99901;-78
2022/11/06 04:19:16;;;;;;;2.17;1.30;;;;;;;;;;5032288;28;99526;-78
2022/11/06 04:22:01;;;;;;;4.20;1.67;;;;;;;;;;5036001;28;98540;-78
2022/11/06 04:27:25;;;;;;;2.85;1.35;;;;;;;;;;5032363;28;98501;-78
2022/11/06 04:30:01;;;;;;;2.67;1.50;;;;;;;;;;5032555;28;99474;-78
2022/11/06 04:32:51;;;;;;;1.98;1.20;;;;;;;;;;5032545;28;98856;-78
2022/11/06 04:35:39;;;;;;;1.30;1.20;;;;;;;;;;4931307;28;98844;-78
2022/11/06 04:38:12;;;;;;;2.75;1.33;;;;;;;;;;4915400;28;100247;-78
2022/11/06 04:40:41;;;;;;;2.75;1.20;;;;;;;;;;4930531;28;100250;-78
2022/11/06 04:43:18;;;;;;;2.10;1.27;;;;;;;;;;4931233;28;98647;-78
2022/11/06 04:45:50;;;;;;;1.67;1.08;;;;;;;;;;4920718;28;99500;-78
2022/11/06 04:48:17;;;;;;;1.48;1.15;;;;;;;;;;4930137;28;98609;-78
2022/11/06 04:50:46;;;;;;;2.83;1.40;;;;;;;;;;4931555;28;99375;-78
2022/11/06 04:53:13;;;;;;;1.25;1.10;;;;;;;;;;4930881;28;99826;-78
2022/11/06 04:56:06;;;;;;;4.30;1.40;;;;;;;;;;4931185;28;98604;-78
2022/11/06 04:58:32;;;;;;;2.10;1.20;;;;;;;;;;4928674;28;99268;-78
2022/11/06 05:00:58;;;;;;;1.30;1.20;;;;;;;;;;4944947;28;99522;-78
2022/11/06 05:03:25;;;;;;;1.38;1.27;;;;;;;;;;4950565;28;98577;-77
2022/11/06 05:05:51;;;;;;;1.90;1.20;;;;;;;;;;4949625;28;102584;-78
2022/11/06 05:08:18;;;;;;;2.20;1.10;;;;;;;;;;4953199;28;99513;-78
2022/11/06 05:10:44;;;;;;;2.97;1.27;;;;;;;;;;4949717;28;99153;-78
2022/11/06 05:13:11;;;;;;;2.72;1.40;;;;;;;;;;5011314;28;100238;-78
2022/11/06 05:15:37;;;;;;;3.65;1.73;;;;;;;;;;5024988;28;98566;-78
2022/11/06 05:18:04;;;;;;;2.95;0.98;;;;;;;;;;5010339;28;99240;-78
2022/11/06 05:20:30;;;;;;;2.70;1.20;;;;;;;;;;5011171;28;99490;-78
2022/11/06 05:22:56;;;;;;;3.13;1.20;;;;;;;;;;5012690;28;97783;-78
2022/11/06 05:25:23;;;;;;;2.08;1.27;;;;;;;;;;5011638;28;98528;-78
2022/11/06 05:27:50;;;;;;;2.85;1.33;;;;;;;;;;5011683;28;101412;-78
2022/11/06 05:30:16;;;;;;;2.00;1.10;;;;;;;;;;5013113;28;99278;-78
2022/11/06 05:32:43;;;;;;;2.70;1.10;;;;;;;;;;5010075;28;100477;-78
2022/11/06 05:35:09;;;;;;;4.32;1.42;;;;;;;;;;5011596;28;98495;-78
2022/11/06 05:37:35;;;;;;;2.65;1.60;;;;;;;;;;5011479;28;100254;-78
2022/11/06 05:40:02;;;;;;;3.13;1.30;;;;;;;;;;5009383;28;100072;-78
2022/11/06 05:42:28;;;;;;;1.58;0.93;;;;;;;;;;5011467;28;98520;-78
2022/11/06 05:44:54;;;;;;;1.70;1.45;;;;;;;;;;5011727;28;100279;-78
2022/11/06 05:47:20;;;;;;;1.45;1.10;;;;;;;;;;5009308;28;99362;-78
2022/11/06 05:49:47;;;;;;;1.65;1.17;;;;;;;;;;5014869;28;98452;-78
2022/11/06 05:52:13;;;;;;;2.10;1.05;;;;;;;;;;5009413;28;99947;-78
2022/11/06 05:54:39;;;;;;;1.52;0.80;;;;;;;;;;5010989;28;99230;-78
2022/11/06 05:57:05;;;;;;;4.70;1.30;;;;;;;;;;5011342;28;100013;-78
2022/11/06 05:59:32;;;;;;;1.02;0.90;;;;;;;;;;5012487;28;99802;-78
2022/11/06 06:01:58;;;;;;;1.08;0.93;;;;;;;;;;5029756;28;98553;-78
2022/11/06 06:04:25;;;;;;;2.30;1.17;;;;;;;;;;5031651;28;99497;-78
2022/11/06 06:06:51;;;;;;;2.08;1.00;;;;;;;;;;5030565;27;99688;-78
2022/11/06 06:09:17;;;;;;;3.80;1.10;;;;;;;;;;5031638;27;98627;-78
2022/11/06 06:11:44;;;;;;;2.65;1.38;;;;;;;;;;5036915;27;99470;-78
2022/11/06 06:14:10;;;;;;;2.78;1.20;;;;;;;;;;5050964;27;98474;-78
2022/11/06 06:16:36;;;;;;;1.30;1.00;;;;;;;;;;5037779;27;99691;-78
2022/11/06 06:19:03;;;;;;;1.75;1.00;;;;;;;;;;5030354;28;103102;-78
2022/11/06 06:21:29;;;;;;;2.33;1.30;;;;;;;;;;5030930;28;98505;-78
2022/11/06 06:23:55;;;;;;;2.88;1.27;;;;;;;;;;5030468;28;99132;-78
2022/11/06 06:26:21;;;;;;;2.00;1.00;;;;;;;;;;5030110;28;99611;-78
2022/11/06 06:28:48;;;;;;;1.98;1.23;;;;;;;;;;5030506;28;98466;-78
2022/11/06 06:31:14;;;;;;;2.95;1.10;;;;;;;;;;5030654;28;99425;-78
2022/11/06 06:33:41;;;;;;;3.15;1.27;;;;;;;;;;5015562;28;99538;-78
2022/11/06 06:36:07;;;;;;;1.08;0.90;;;;;;;;;;5031321;28;99162;-78
2022/11/06 06:38:33;;;;;;;4.03;1.20;;;;;;;;;;5012171;28;100014;-78
2022/11/06 06:41:04;;;;;;;2.33;1.35;;;;;;;;;;5030892;28;98468;-78
2022/11/06 06:43:30;;;;;;;2.13;1.15;;;;;;;;;;5029972;28;99271;-78
2022/11/06 06:46:01;;;;;;;1.73;1.17;;;;;;;;;;5011979;28;99530;-78
2022/11/06 06:48:28;;;;;;;1.75;1.02;;;;;;;;;;5012762;28;99134;-78
2022/11/06 06:51:01;;;;;;;3.58;0.90;;;;;;;;;;5012447;28;99096;-78
2022/11/06 06:53:28;;;;;;;1.17;0.90;;;;;;;;;;5012657;28;99470;-78
2022/11/06 06:55:56;;;;;;;0.98;0.90;;;;;;;;;;5034335;28;98434;-78
2022/11/06 06:58:22;;;;;;;1.27;1.10;;;;;;;;;;5030368;28;100496;-78
2022/11/06 07:00:49;;;;;;;1.33;1.00;;;;;;;;;;5044007;27;97767;-78
2022/11/06 07:03:16;;;;;;;3.67;1.30;;;;;;;;;;5050485;27;98953;-78
2022/11/06 07:05:42;;;;;;;1.48;1.15;;;;;;;;;;5032444;27;99556;-78
2022/11/06 07:08:09;;;;;;;1.52;1.00;;;;;;;;;;5050290;27;99389;-78
2022/11/06 07:10:35;;;;;;;1.52;1.25;;;;;;;;;;5032491;27;100928;-78
2022/11/06 07:13:05;;;;;;;2.60;1.23;;;;;;;;;;5035002;27;98773;-78
2022/11/06 07:15:31;;;;;;;2.43;1.17;;;;;;;;;;5049497;27;98759;-78
2022/11/06 07:18:01;;;;;;;1.40;1.00;;;;;;;;;;5036549;28;99330;-78
2022/11/06 07:20:28;;;;;;;1.85;1.10;;;;;;;;;;5016279;28;98634;-78
2022/11/06 07:22:54;;;;;;;3.00;1.40;;;;;;;;;;5033455;28;99603;-78
2022/11/06 07:25:20;;;;;;;1.65;0.93;;;;;;;;;;5015767;28;99811;-78
2022/11/06 07:27:47;;;;;;;3.30;1.40;;;;;;;;;;5033500;28;98503;-78
2022/11/06 07:30:13;;;;;;;1.92;0.93;;;;;;;;;;5033550;28;99299;-78
2022/11/06 07:32:39;;;;;;;2.08;1.13;;;;;;;;;;5015237;28;100205;-78
2022/11/06 07:35:06;;;;;;;2.35;1.02;;;;;;;;;;5033882;28;98438;-78
2022/11/06 07:37:32;;;;;;;2.42;1.10;;;;;;;;;;5015782;28;99310;-78
2022/11/06 07:39:58;;;;;;;3.15;1.23;;;;;;;;;;5017942;28;99491;-78
2022/11/06 07:42:24;;;;;;;0.93;0.82;;;;;;;;;;5033240;28;99504;-78
2022/11/06 07:44:53;;;;;;;1.23;1.13;;;;;;;;;;5014670;28;99546;-78
2022/11/06 07:47:19;;;;;;;1.30;0.90;;;;;;;;;;5015737;28;98524;-78
2022/11/06 07:49:45;;;;;;;4.72;1.42;;;;;;;;;;5033602;28;99516;-78
2022/11/06 07:52:16;;;;;;;1.55;1.10;;;;;;;;;;5033390;28;99465;-78
2022/11/06 07:54:42;;;;;;;2.13;1.20;;;;;;;;;;5033248;28;98846;-78
2022/11/06 07:57:08;;;;;;;1.80;1.20;;;;;;;;;;5032600;28;99173;-78
2022/11/06 07:59:35;;;;;;;3.17;0.90;;;;;;;;;;5038992;27;99492;-78
2022/11/06 08:02:01;;;;;;;1.50;1.00;;;;;;;;;;5053198;27;99146;-78
2022/11/06 08:04:27;;;;;;;2.85;1.35;;;;;;;;;;5052711;27;99492;-78
2022/11/06 08:06:55;;;;;;;3.40;1.33;;;;;;;;;;5035046;27;98676;-78
2022/11/06 08:09:23;;;;;;;1.48;1.05;;;;;;;;;;5034460;27;99437;-78
2022/11/06 08:11:50;;;;;;;3.13;1.00;;;;;;;;;;5034870;27;99500;-78
2022/11/06 08:14:16;;;;;;;2.00;0.95;;;;;;;;;;5053497;27;97995;-78
2022/11/06 08:16:42;;;;;;;1.98;0.90;;;;;;;;;;5038715;27;98715;-78
2022/11/06 08:19:08;;;;;;;1.85;1.00;;;;;;;;;;5032395;28;99497;-78
2022/11/06 08:21:35;;;;;;;0.88;0.80;;;;;;;;;;5035033;28;99255;-78
2022/11/06 08:24:02;;;;;;;2.15;0.93;;;;;;;;;;5031842;28;99513;-78
2022/11/06 08:26:28;;;;;;;1.65;1.15;;;;;;;;;;5014734;28;98582;-78
2022/11/06 08:28:56;;;;;;;1.63;1.05;;;;;;;;;;5032680;28;99448;-78
2022/11/06 08:31:22;;;;;;;2.13;1.23;;;;;;;;;;5032038;28;99643;-78
2022/11/06 08:33:49;;;;;;;3.33;1.20;;;;;;;;;;5032523;28;98472;-78
2022/11/06 08:36:15;;;;;;;3.03;1.10;;;;;;;;;;5032058;28;99150;-78
2022/11/06 08:38:41;;;;;;;2.47;1.17;;;;;;;;;;5014536;28;98720;-78
2022/11/06 08:41:09;;;;;;;3.70;1.42;;;;;;;;;;5032300;28;98594;-78
2022/11/06 08:43:36;;;;;;;1.33;0.90;;;;;;;;;;5035409;28;98586;-78
2022/11/06 08:46:04;;;;;;;1.65;0.93;;;;;;;;;;5032378;28;99254;-78
2022/11/06 08:48:31;;;;;;;1.38;0.80;;;;;;;;;;5032226;28;100061;-78
2022/11/06 08:50:57;;;;;;;1.23;0.82;;;;;;;;;;5031864;28;99478;-78
2022/11/06 08:53:23;;;;;;;1.38;0.95;;;;;;;;;;5032082;28;98581;-78
2022/11/06 08:55:50;;;;;;;1.20;0.90;;;;;;;;;;5032717;28;99519;-78
2022/11/06 08:58:16;;;;;;;1.33;1.10;;;;;;;;;;5013697;28;99464;-78
2022/11/06 09:00:43;;;;;;;1.35;0.80;;;;;;;;;;5026513;27;98531;-78
2022/11/06 09:03:12;;;;;;;2.13;1.00;;;;;;;;;;5052676;27;99549;-78
2022/11/06 09:05:42;;;;;;;1.13;0.77;;;;;;;;;;5055757;27;99694;-78
2022/11/06 09:08:09;;;;;;;1.08;0.90;;;;;;;;;;5052185;27;99140;-78
2022/11/06 09:10:36;;;;;;;1.33;0.82;;;;;;;;;;5050822;27;100509;-78
2022/11/06 09:13:03;;;;;;;2.53;1.00;;;;;;;;;;5034629;27;98669;-78
2022/11/06 09:15:29;;;;;;;2.95;0.98;;;;;;;;;;5047188;27;99155;-78
2022/11/06 09:17:56;;;;;;;1.30;0.80;;;;;;;;;;5031799;28;99402;-79
2022/11/06 09:20:23;;;;;;;1.92;1.00;;;;;;;;;;5031407;28;98566;-78
2022/11/06 09:22:50;;;;;;;1.90;0.85;;;;;;;;;;5032478;28;101432;-78
2022/11/06 09:25:17;;;;;;;3.72;1.48;;;;;;;;;;5031716;28;99939;-78
2022/11/06 09:27:52;;;;;;;2.38;1.20;;;;;;;;;;5035531;28;97751;-78
2022/11/06 09:30:25;;;;;;;1.35;1.00;;;;;;;;;;5031027;28;99617;-78
2022/11/06 09:32:53;;;;;;;1.33;1.00;;;;;;;;;;5031295;28;98556;-78
2022/11/06 09:35:20;;;;;;;2.65;1.00;;;;;;;;;;5030277;28;99336;-78
2022/11/06 09:37:46;;;;;;;0.90;0.90;;;;;;;;;;5031591;28;99436;-78
2022/11/06 09:40:16;;;;;;;1.75;0.90;;;;;;;;;;5013397;28;98601;-78
2022/11/06 09:43:00;;;;;;;1.83;1.00;;;;;;;;;;5031253;28;99148;-78
2022/11/06 09:45:28;;;;;;;1.58;0.98;;;;;;;;;;5030536;28;99617;-78
2022/11/06 09:48:10;;;;;;;1.55;0.90;;;;;;;;;;5031539;28;98651;-78
2022/11/06 09:50:39;;;;;;;0.82;0.82;;;;;;;;;;5016255;28;99584;-78
2022/11/06 09:53:09;;;;;;;1.70;0.88;;;;;;;;;;5013677;28;97989;-78
2022/11/06 09:55:38;;;;;;;1.02;0.75;;;;;;;;;;5031923;28;101207;-78
2022/11/06 09:58:07;;;;;;;2.40;1.00;;;;;;;;;;5030840;28;99583;-78
2022/11/06 10:00:34;;;;;;;1.38;1.10;;;;;;;;;;5041718;27;99385;-78
2022/11/06 10:03:05;;;;;;;3.55;1.20;;;;;;;;;;5051984;27;99747;-78
2022/11/06 10:05:33;;;;;;;2.72;1.30;;;;;;;;;;5051229;27;99492;-78
2022/11/06 10:08:01;;;;;;;1.95;0.95;;;;;;;;;;5033579;27;98427;-78
2022/11/06 10:10:29;;;;;;;1.65;1.05;;;;;;;;;;5053535;27;99180;-78
2022/11/06 10:13:14;;;;;;;2.17;0.98;;;;;;;;;;5033239;27;98527;-78
2022/11/06 10:15:50;;;;;;;1.65;0.77;;;;;;;;;;5044586;27;99512;-78
2022/11/06 10:18:35;;;;;;;0.93;0.80;;;;;;;;;;5012695;28;98759;-78
2022/11/06 10:21:18;;;;;;;2.70;0.70;;;;;;;;;;5029939;28;98605;-78
2022/11/06 10:23:58;;;;;;;2.90;1.10;;;;;;;;;;5013716;28;99301;-78
2022/11/06 10:26:27;;;;;;;2.20;0.90;;;;;;;;;;5030003;28;100649;-78
2022/11/06 10:29:11;;;;;;;0.85;0.75;;;;;;;;;;5030870;28;98533;-78
2022/11/06 10:31:47;;;;;;;2.25;0.88;;;;;;;;;;5030560;28;99206;-78
2022/11/06 10:34:22;;;;;;;2.47;1.00;;;;;;;;;;5033510;28;99519;-78
2022/11/06 10:36:53;;;;;;;1.23;0.70;;;;;;;;;;5030498;28;99145;-78
2022/11/06 10:39:25;;;;;;;2.00;1.00;;;;;;;;;;5013067;28;102347;-79
2022/11/06 10:41:56;;;;;;;1.48;0.95;;;;;;;;;;5030574;28;98636;-79
2022/11/06 10:44:26;;;;;;;4.25;1.20;;;;;;;;;;5031123;28;97834;-78
2022/11/06 10:47:11;;;;;;;1.58;0.90;;;;;;;;;;5014931;28;99475;-78
2022/11/06 10:49:41;;;;;;;1.73;0.93;;;;;;;;;;5034061;28;98649;-78
2022/11/06 10:52:14;;;;;;;1.00;0.90;;;;;;;;;;5015766;28;99192;-78
2022/11/06 10:54:40;;;;;;;1.40;0.88;;;;;;;;;;5033588;28;99828;-77
2022/11/06 10:57:25;;;;;;;1.20;0.80;;;;;;;;;;5019951;28;98655;-78
2022/11/06 10:59:51;;;;;;;3.17;1.08;;;;;;;;;;5038487;27;99471;-78
2022/11/06 11:02:21;;;;;;;1.83;1.25;;;;;;;;;;5036348;27;98779;-78
2022/11/06 11:04:47;;;;;;;1.45;0.90;;;;;;;;;;5054061;27;99140;-78
2022/11/06 11:07:15;;;;;;;1.48;1.20;;;;;;;;;;5053322;27;99727;-78
2022/11/06 11:09:49;;;;;;;1.27;1.10;;;;;;;;;;5054043;27;97777;-78
2022/11/06 11:12:33;;;;;;;1.83;1.23;;;;;;;;;;5054359;27;98998;-78
2022/11/06 11:15:05;;;;;;;1.35;0.82;;;;;;;;;;5053124;27;99518;-78
2022/11/06 11:17:32;;;;;;;1.52;0.88;;;;;;;;;;5033687;28;99276;-78
2022/11/06 11:20:00;;;;;;;2.83;1.20;;;;;;;;;;5019186;28;101940;-78
2022/11/06 11:22:27;;;;;;;3.10;0.93;;;;;;;;;;5033470;28;98735;-78
2022/11/06 11:25:02;;;;;;;1.02;0.80;;;;;;;;;;5033756;28;101792;-78
2022/11/06 11:27:30;;;;;;;1.15;0.85;;;;;;;;;;5033036;28;99812;-78
2022/11/06 11:29:57;;;;;;;1.67;0.95;;;;;;;;;;5032292;28;98673;-78
2022/11/06 11:32:23;;;;;;;1.83;1.00;;;;;;;;;;5033950;28;101055;-78
2022/11/06 11:34:53;;;;;;;2.05;1.10;;;;;;;;;;5033439;28;99124;-78
2022/11/06 11:37:26;;;;;;;1.73;1.02;;;;;;;;;;5032901;28;98540;-78
2022/11/06 11:39:53;;;;;;;2.22;0.90;;;;;;;;;;5033878;28;99510;-78
2022/11/06 11:42:22;;;;;;;2.95;1.17;;;;;;;;;;5035529;28;100627;-79
2022/11/06 11:45:24;;;;;;;1.45;0.98;;;;;;;;;;5033985;28;99833;-78
2022/11/06 11:47:50;;;;;;;1.55;0.95;;;;;;;;;;4931324;28;99914;-78
2022/11/06 11:50:30;;;;;;;2.05;1.10;;;;;;;;;;4931989;28;98578;-78
2022/11/06 11:52:58;;;;;;;2.63;1.03;;;;;;;;;;4931887;28;99463;-78
2022/11/06 11:55:27;;;;;;;2.00;0.90;;;;;;;;;;4931461;28;99898;-78
2022/11/06 11:57:54;;;;;;;2.20;1.08;;;;;;;;;;4915695;28;98526;-78
2022/11/06 12:00:22;;;;;;;2.28;1.00;;;;;;;;;;4932175;28;99371;-78
2022/11/06 12:02:59;;;;;;;1.02;0.77;;;;;;;;;;4915403;28;99504;-78
2022/11/06 12:05:36;;;;;;;1.30;0.82;;;;;;;;;;4919046;28;98523;-78
2022/11/06 12:08:03;;;;;;;3.95;1.10;;;;;;;;;;4914634;28;100235;-78
2022/11/06 12:10:37;;;;;;;1.35;1.05;;;;;;;;;;4930910;28;98619;-78
2022/11/06 12:13:05;;;;;;;2.03;0.90;;;;;;;;;;4916322;28;99049;-78
2022/11/06 12:15:43;;;;;;;2.20;0.90;;;;;;;;;;4931042;28;99597;-78
2022/11/06 12:18:12;;;;;;;3.03;1.08;;;;;;;;;;4932216;28;98692;-78
2022/11/06 12:20:41;;;;;;;2.20;1.00;;;;;;;;;;4915969;28;99267;-78
2022/11/06 12:23:14;;;;;;;1.35;0.95;;;;;;;;;;5011459;28;102564;-77
2022/11/06 12:25:41;;;;;;;3.17;1.08;;;;;;;;;;5016380;28;97799;-78
2022/11/06 12:28:15;;;;;;;1.75;0.90;;;;;;;;;;5011971;28;99839;-78
2022/11/06 12:30:44;;;;;;;2.50;0.93;;;;;;;;;;5012419;28;98640;-78
2022/11/06 12:33:13;;;;;;;1.52;0.70;;;;;;;;;;5011724;28;99507;-78
2022/11/06 12:35:48;;;;;;;1.88;0.88;;;;;;;;;;5012309;28;103666;-78
2022/11/06 12:38:33;;;;;;;1.55;0.80;;;;;;;;;;5012264;28;98516;-78
2022/11/06 12:41:10;;;;;;;2.63;1.05;;;;;;;;;;5012038;28;99409;-78
2022/11/06 12:43:44;;;;;;;1.75;0.95;;;;;;;;;;5011611;28;99441;-78
2022/11/06 12:46:26;;;;;;;2.42;1.48;;;;;;;;;;5022290;28;98515;-78
2022/11/06 12:48:55;;;;;;;1.95;1.00;;;;;;;;;;5035098;28;99497;-78
2022/11/06 12:51:21;;;;;;;1.85;1.00;;;;;;;;;;5014685;28;97758;-78
2022/11/06 12:54:00;;;;;;;1.75;0.95;;;;;;;;;;5032239;28;98572;-78
2022/11/06 12:56:26;;;;;;;0.70;0.70;;;;;;;;;;5031717;28;99516;-78
2022/11/06 12:59:19;;;;;;;1.15;0.90;;;;;;;;;;5014425;28;99234;-78
2022/11/06 13:01:52;;;;;;;2.10;1.05;;;;;;;;;;4990010;28;100216;-78
2022/11/06 13:04:32;;;;;;;4.82;1.45;;;;;;;;;;5012132;28;99825;-78
2022/11/06 13:07:05;;;;;;;1.15;1.00;;;;;;;;;;5012320;28;98545;-78
2022/11/06 13:09:31;;;;;;;2.58;1.10;;;;;;;;;;5010188;28;99425;-78
2022/11/06 13:12:03;;;;;;;1.38;1.00;;;;;;;;;;5014524;28;99468;-78
2022/11/06 13:14:53;;;;;;;1.92;1.02;;;;;;;;;;4994515;28;102264;-78
2022/11/06 13:17:29;;;;;;;1.23;1.00;;;;;;;;;;5000130;28;99122;-78
2022/11/06 13:20:01;;;;;;;2.05;1.30;;;;;;;;;;5011302;28;98495;-78
2022/11/06 13:22:30;;;;;;;3.00;1.40;;;;;;;;;;5011643;28;99143;-79
2022/11/06 13:25:15;;;;;;;1.80;1.10;;;;;;;;;;4992822;28;100368;-78
2022/11/06 13:27:55;;;;;;;2.25;1.08;;;;;;;;;;5012295;28;98436;-78
2022/11/06 13:30:23;;;;;;;2.33;1.02;;;;;;;;;;4993785;28;99433;-78
2022/11/06 13:33:05;;;;;;;2.05;0.95;;;;;;;;;;5011219;28;99542;-78
2022/11/06 13:35:31;;;;;;;1.35;1.00;;;;;;;;;;5014506;28;98618;-78
2022/11/06 13:37:58;;;;;;;2.10;0.90;;;;;;;;;;5011034;28;99500;-78
2022/11/06 13:40:34;;;;;;;1.50;0.85;;;;;;;;;;4993561;28;98484;-78
2022/11/06 13:43:22;;;;;;;1.75;1.00;;;;;;;;;;5011648;28;99268;-78
2022/11/06 13:46:02;;;;;;;2.80;1.10;;;;;;;;;;5000626;28;99740;-78
2022/11/06 13:48:47;;;;;;;3.65;1.15;;;;;;;;;;5032108;28;98500;-78
2022/11/06 13:51:32;;;;;;;1.90;1.00;;;;;;;;;;5013060;28;99470;-78
2022/11/06 13:54:05;;;;;;;2.58;1.27;;;;;;;;;;5031261;28;100272;-78
2022/11/06 13:56:51;;;;;;;2.38;0.82;;;;;;;;;;5013699;28;98658;-78
2022/11/06 13:59:26;;;;;;;1.63;1.15;;;;;;;;;;5034584;27;100300;-78
2022/11/06 14:02:09;;;;;;;1.13;0.90;;;;;;;;;;5052077;27;98523;-78
2022/11/06 14:04:36;;;;;;;3.05;1.02;;;;;;;;;;5033681;27;99189;-78
2022/11/06 14:07:03;;;;;;;1.23;0.82;;;;;;;;;;5050660;27;99446;-78
2022/11/06 14:09:30;;;;;;;1.88;1.27;;;;;;;;;;5050905;27;97853;-78
2022/11/06 14:11:58;;;;;;;4.70;1.15;;;;;;;;;;5051076;27;98666;-78
2022/11/06 14:14:26;;;;;;;1.88;0.93;;;;;;;;;;5032870;27;99485;-78
2022/11/06 14:17:12;;;;;;;1.00;0.90;;;;;;;;;;5034422;27;99239;-78
2022/11/06 14:19:39;;;;;;;1.83;1.10;;;;;;;;;;5016090;28;100253;-78
2022/11/06 14:22:08;;;;;;;1.83;0.95;;;;;;;;;;5030559;28;98488;-78
2022/11/06 14:24:35;;;;;;;1.38;0.88;;;;;;;;;;5012855;28;99117;-78
2022/11/06 14:27:03;;;;;;;3.25;1.15;;;;;;;;;;5030218;28;99758;-78
2022/11/06 14:29:29;;;;;;;1.48;0.95;;;;;;;;;;5013359;28;98983;-78
2022/11/06 14:32:09;;;;;;;2.42;1.15;;;;;;;;;;5030649;28;99447;-78
2022/11/06 14:34:36;;;;;;;2.10;1.08;;;;;;;;;;5030463;28;98840;-78
2022/11/06 14:37:18;;;;;;;2.20;1.13;;;;;;;;;;5013186;28;98555;-78
2022/11/06 14:39:50;;;;;;;2.35;1.10;;;;;;;;;;5012583;28;99246;-78
2022/11/06 14:42:23;;;;;;;2.80;1.27;;;;;;;;;;5015025;28;100300;-78
2022/11/06 14:44:53;;;;;;;0.70;0.70;;;;;;;;;;5030053;28;99810;-78
2022/11/06 14:47:23;;;;;;;3.05;1.10;;;;;;;;;;5029924;28;99544;-78
2022/11/06 14:49:51;;;;;;;2.00;1.00;;;;;;;;;;5030456;28;98503;-78
2022/11/06 14:52:18;;;;;;;2.10;1.05;;;;;;;;;;5030685;28;99579;-78
2022/11/06 14:54:52;;;;;;;1.73;0.98;;;;;;;;;;5029896;28;99470;-78
2022/11/06 14:57:33;;;;;;;1.75;0.90;;;;;;;;;;5030864;28;98502;-78
2022/11/06 15:00:00;;;;;;;1.67;1.05;;;;;;;;;;5037700;27;100157;-78
2022/11/06 15:02:28;;;;;;;1.92;1.02;;;;;;;;;;5049918;27;99908;-78
2022/11/06 15:04:57;;;;;;;3.13;1.25;;;;;;;;;;5053969;27;98527;-78
2022/11/06 15:07:26;;;;;;;2.10;1.00;;;;;;;;;;5036630;27;100533;-78
2022/11/06 15:10:31;;;;;;;2.80;1.08;;;;;;;;;;5008641;28;98524;-78